Time;durP1;ratioP1;P1;durP2;ratioP2;P2;SDS_P1;SDS_P2;PMS_P1;PMS_P2;Temp;Humidity;BMP_temperature;BMP_pressure;BME280_temperature;BME280_humidity;BME280_pressure;Samples;Min_cycle;Max_cycle;Signal;HPM_P1;HPM_P2
2022/09/07 00:01:19;;;;;;;14.15;7.57;;;18.80;99.90;;;;;;4995084;28;20038;-74
2022/09/07 00:03:45;;;;;;;11.27;7.60;;;18.80;99.90;;;;;;5012720;28;20044;-74
2022/09/07 00:06:12;;;;;;;13.73;7.68;;;18.70;99.90;;;;;;4995191;28;20052;-74
2022/09/07 00:08:39;;;;;;;16.13;8.02;;;18.80;99.90;;;;;;5013031;28;20050;-73
2022/09/07 00:11:09;;;;;;;13.73;8.30;;;18.70;99.90;;;;;;4996472;28;20193;-74
2022/09/07 00:13:37;;;;;;;18.17;8.35;;;18.60;99.90;;;;;;5009186;28;20362;-74
2022/09/07 00:16:05;;;;;;;26.88;8.85;;;18.70;99.90;;;;;;5009181;28;20045;-75
2022/09/07 00:18:31;;;;;;;14.65;9.15;;;18.60;99.90;;;;;;5013121;28;20034;-75
2022/09/07 00:20:59;;;;;;;22.88;9.15;;;18.50;99.90;;;;;;5012841;28;20181;-75
2022/09/07 00:23:25;;;;;;;16.58;9.68;;;18.40;99.90;;;;;;5012476;28;20045;-75
2022/09/07 00:25:51;;;;;;;14.07;9.32;;;18.30;99.90;;;;;;4996252;28;20053;-75
2022/09/07 00:28:16;;;;;;;13.15;9.20;;;18.20;99.90;;;;;;5011801;28;20060;-74
2022/09/07 00:30:42;;;;;;;15.52;9.13;;;18.20;99.90;;;;;;4996442;28;20461;-74
2022/09/07 00:33:09;;;;;;;12.50;9.15;;;18.20;99.90;;;;;;5010942;28;20037;-74
2022/09/07 00:35:41;;;;;;;17.52;9.50;;;18.10;99.90;;;;;;5012566;28;20046;-76
2022/09/07 00:38:06;;;;;;;18.58;9.27;;;18.10;99.90;;;;;;5012334;28;20038;-75
2022/09/07 00:40:33;;;;;;;15.63;9.77;;;18.00;99.90;;;;;;5012707;28;20038;-73
2022/09/07 00:42:59;;;;;;;19.63;9.70;;;17.90;99.90;;;;;;5011363;28;20050;-74
2022/09/07 00:45:25;;;;;;;16.00;9.65;;;17.90;99.90;;;;;;5012252;28;20052;-74
2022/09/07 00:48:13;;;;;;;15.75;9.48;;;17.90;99.90;;;;;;4995959;28;20049;-75
2022/09/07 00:50:56;;;;;;;13.23;9.68;;;17.80;99.90;;;;;;4994337;28;20049;-74
2022/09/07 00:53:24;;;;;;;16.60;9.27;;;17.80;99.90;;;;;;5011410;28;20037;-74
2022/09/07 00:55:52;;;;;;;16.40;9.82;;;17.70;99.90;;;;;;5012252;28;20377;-74
2022/09/07 00:58:20;;;;;;;17.63;10.13;;;17.80;99.90;;;;;;4994709;28;20056;-74
2022/09/07 01:00:48;;;;;;;13.52;9.32;;;17.80;99.90;;;;;;4996142;28;20041;-75
2022/09/07 01:03:17;;;;;;;17.73;9.05;;;17.70;99.90;;;;;;5012169;28;20034;-75
2022/09/07 01:05:50;;;;;;;16.92;9.48;;;17.70;99.90;;;;;;5012228;28;20046;-74
2022/09/07 01:08:16;;;;;;;17.50;9.85;;;17.70;99.90;;;;;;5010418;28;20046;-74
2022/09/07 01:10:42;;;;;;;13.55;9.50;;;17.70;99.90;;;;;;4982553;28;20047;-75
2022/09/07 01:13:08;;;;;;;15.73;9.70;;;17.70;99.90;;;;;;5006915;28;20509;-75
2022/09/07 01:16:06;;;;;;;14.35;9.50;;;17.70;99.90;;;;;;5000431;28;20053;-74
2022/09/07 01:18:53;;;;;;;15.85;10.48;;;17.70;99.90;;;;;;4993753;28;20079;-75
2022/09/07 01:21:53;;;;;;;18.27;10.75;;;17.60;99.90;;;;;;5009466;28;20047;-74
2022/09/07 01:24:38;;;;;;;13.68;9.75;;;17.60;99.90;;;;;;4994460;28;20141;-74
2022/09/07 01:27:22;;;;;;;14.10;10.27;;;17.50;99.90;;;;;;5004237;28;20034;-74
2022/09/07 01:30:04;;;;;;;16.02;9.93;;;17.70;99.90;;;;;;5011716;28;20586;-74
2022/09/07 01:32:39;;;;;;;15.43;9.82;;;17.80;99.90;;;;;;5013080;28;20049;-74
2022/09/07 01:35:10;;;;;;;;;;;17.80;99.90;;;;;;5010896;28;20116;-75
2022/09/07 01:38:09;;;;;;;36.53;14.57;;;17.90;99.90;;;;;;4995154;28;20024;-74
2022/09/07 01:41:02;;;;;;;25.33;11.88;;;17.80;99.90;;;;;;4994910;28;20363;-74
2022/09/07 01:43:42;;;;;;;28.00;11.18;;;17.70;99.90;;;;;;4974915;28;20112;-75
2022/09/07 01:46:20;;;;;;;22.95;13.38;;;17.70;99.90;;;;;;4975486;28;20128;-74
2022/09/07 01:48:50;;;;;;;24.05;12.63;;;17.50;99.90;;;;;;4975446;28;20142;-73
2022/09/07 01:51:20;;;;;;;24.67;12.48;;;17.30;99.90;;;;;;4992167;28;20057;-74
2022/09/07 01:54:01;;;;;;;18.23;13.10;;;17.20;99.90;;;;;;5010953;28;20046;-75
2022/09/07 01:56:35;;;;;;;20.67;13.25;;;17.10;99.90;;;;;;5011064;28;20042;-74
2022/09/07 01:59:14;;;;;;;18.17;12.65;;;17.10;99.90;;;;;;5009901;28;20042;-75
2022/09/07 02:02:19;;;;;;;26.05;13.95;;;17.10;99.90;;;;;;5011421;28;20385;-75
2022/09/07 02:04:57;;;;;;;17.45;12.45;;;17.10;99.90;;;;;;4973385;28;20064;-76
2022/09/07 02:07:24;;;;;;;18.73;11.32;;;17.10;99.90;;;;;;4989961;28;20141;-74
2022/09/07 02:09:59;;;;;;;16.33;10.60;;;17.10;99.90;;;;;;4972726;28;20043;-75
2022/09/07 02:12:51;;;;;;;16.08;9.07;;;17.10;99.90;;;;;;4956102;28;20462;-76
2022/09/07 02:15:30;;;;;;;16.58;10.23;;;17.00;99.90;;;;;;4957803;28;20042;-76
2022/09/07 02:18:01;;;;;;;14.65;7.72;;;17.10;99.90;;;;;;4973580;28;20137;-75
2022/09/07 02:20:37;;;;;;;8.23;5.78;;;17.10;99.90;;;;;;4974000;28;20081;-75
2022/09/07 02:23:10;;;;;;;11.98;5.32;;;17.10;99.90;;;;;;4957033;28;20065;-75
2022/09/07 02:25:40;;;;;;;11.52;6.07;;;17.10;99.90;;;;;;4957684;28;20058;-75
2022/09/07 02:28:21;;;;;;;14.68;7.22;;;17.00;99.90;;;;;;4970992;28;20623;-76
2022/09/07 02:30:47;;;;;;;10.73;5.60;;;17.00;99.90;;;;;;4957585;28;20497;-75
2022/09/07 02:33:13;;;;;;;15.80;6.70;;;17.00;99.90;;;;;;4981051;28;20196;-75
2022/09/07 02:35:39;;;;;;;10.07;5.43;;;17.10;99.90;;;;;;4976577;28;20141;-75
2022/09/07 02:38:06;;;;;;;9.88;5.45;;;17.20;99.90;;;;;;4996710;28;20398;-74
2022/09/07 02:40:33;;;;;;;10.10;5.22;;;17.10;99.90;;;;;;5010532;28;20125;-76
2022/09/07 02:43:04;;;;;;;8.13;5.43;;;17.10;99.90;;;;;;4989594;28;20108;-76
2022/09/07 02:45:42;;;;;;;10.57;5.10;;;17.10;99.90;;;;;;5007274;28;20125;-76
2022/09/07 02:48:39;;;;;;;7.22;5.40;;;17.00;99.90;;;;;;5009720;28;20112;-75
2022/09/07 02:51:08;;;;;;;9.00;5.57;;;16.90;99.90;;;;;;4994450;28;20049;-77
2022/09/07 02:53:53;;;;;;;8.98;6.22;;;16.90;99.90;;;;;;5010011;28;20382;-75
2022/09/07 02:56:31;;;;;;;9.35;6.20;;;16.90;99.90;;;;;;4994302;28;20453;-76
2022/09/07 02:59:12;;;;;;;11.82;6.90;;;16.90;99.90;;;;;;4992793;28;20042;-75
2022/09/07 03:02:03;;;;;;;10.38;7.30;;;16.90;99.90;;;;;;4994145;28;20049;-76
2022/09/07 03:04:32;;;;;;;9.07;7.40;;;16.90;99.90;;;;;;5008745;28;20085;-76
2022/09/07 03:07:05;;;;;;;13.02;7.53;;;16.80;99.90;;;;;;4976719;28;20042;-76
2022/09/07 03:09:37;;;;;;;9.85;6.72;;;16.90;99.90;;;;;;5009665;28;20128;-75
2022/09/07 03:12:04;;;;;;;12.70;6.60;;;16.90;99.90;;;;;;5009097;28;20437;-74
2022/09/07 03:14:32;;;;;;;9.70;6.82;;;16.90;99.90;;;;;;4993633;28;20048;-75
2022/09/07 03:16:58;;;;;;;9.55;6.93;;;16.90;99.90;;;;;;4995839;28;20064;-75
2022/09/07 03:19:24;;;;;;;12.55;6.90;;;17.00;99.90;;;;;;5013863;28;20204;-75
2022/09/07 03:21:50;;;;;;;16.75;6.68;;;17.00;99.90;;;;;;4995987;28;20049;-76
2022/09/07 03:24:16;;;;;;;9.95;7.38;;;17.00;99.90;;;;;;5013293;28;20096;-76
2022/09/07 03:26:45;;;;;;;10.13;7.20;;;17.00;99.90;;;;;;4997662;28;20054;-76
2022/09/07 03:29:11;;;;;;;10.40;6.38;;;17.00;99.90;;;;;;5012819;28;20449;-76
2022/09/07 03:31:37;;;;;;;12.07;7.82;;;17.00;99.90;;;;;;5013912;28;20123;-76
2022/09/07 03:34:03;;;;;;;9.55;6.82;;;17.10;99.90;;;;;;5001438;28;20469;-76
2022/09/07 03:36:29;;;;;;;12.13;7.18;;;17.00;99.90;;;;;;5013568;28;20130;-76
2022/09/07 03:38:55;;;;;;;8.90;6.75;;;17.00;99.90;;;;;;4993087;28;20057;-76
2022/09/07 03:41:21;;;;;;;10.43;7.05;;;17.00;99.90;;;;;;5013437;28;20037;-76
2022/09/07 03:43:47;;;;;;;8.02;6.38;;;17.00;99.90;;;;;;4996162;28;20038;-76
2022/09/07 03:46:16;;;;;;;9.20;6.53;;;17.00;99.90;;;;;;4997321;28;20088;-76
2022/09/07 03:48:42;;;;;;;10.40;6.80;;;17.10;99.90;;;;;;5013168;28;20079;-76
2022/09/07 03:51:09;;;;;;;7.82;6.53;;;17.00;99.90;;;;;;4997339;28;20045;-77
2022/09/07 03:53:38;;;;;;;9.00;6.70;;;17.00;99.90;;;;;;5012941;28;20038;-77
2022/09/07 03:56:12;;;;;;;7.40;6.57;;;17.00;99.90;;;;;;4979775;28;20041;-77
2022/09/07 03:58:38;;;;;;;7.53;6.60;;;17.00;99.90;;;;;;5012961;28;20113;-75
2022/09/07 04:01:09;;;;;;;7.05;6.28;;;17.10;99.90;;;;;;4996982;28;20038;-74
2022/09/07 04:03:36;;;;;;;7.30;6.15;;;17.00;99.90;;;;;;5013274;28;20045;-75
2022/09/07 04:06:02;;;;;;;7.55;6.30;;;17.00;99.90;;;;;;5010603;28;20052;-76
2022/09/07 04:08:30;;;;;;;8.25;5.88;;;17.00;99.90;;;;;;5001038;28;20061;-75
2022/09/07 04:11:00;;;;;;;9.13;6.22;;;16.90;99.90;;;;;;5012995;28;20163;-76
2022/09/07 04:13:27;;;;;;;8.85;6.53;;;17.00;99.90;;;;;;5009980;28;20359;-76
2022/09/07 04:15:53;;;;;;;7.18;6.22;;;16.90;99.90;;;;;;5007359;28;20362;-76
2022/09/07 04:18:19;;;;;;;13.48;6.68;;;16.90;99.90;;;;;;5012832;28;20049;-76
2022/09/07 04:20:45;;;;;;;7.85;6.18;;;16.90;99.90;;;;;;4996343;28;20469;-75
2022/09/07 04:23:11;;;;;;;10.90;6.60;;;16.90;99.90;;;;;;5012523;28;20045;-76
2022/09/07 04:25:37;;;;;;;11.35;6.82;;;16.90;99.90;;;;;;5012784;28;20046;-75
2022/09/07 04:28:03;;;;;;;7.60;6.78;;;16.80;99.90;;;;;;5010466;28;20409;-75
2022/09/07 04:30:29;;;;;;;11.30;7.20;;;16.70;99.90;;;;;;4989954;28;20064;-74
2022/09/07 04:32:55;;;;;;;11.00;7.13;;;16.70;99.90;;;;;;4987439;28;20152;-74
2022/09/07 04:35:21;;;;;;;10.25;7.13;;;16.70;99.90;;;;;;5013067;28;20089;-74
2022/09/07 04:37:47;;;;;;;9.55;6.97;;;16.70;99.90;;;;;;4977746;28;20129;-76
2022/09/07 04:40:13;;;;;;;12.70;7.55;;;16.70;99.90;;;;;;4996699;28;20133;-76
2022/09/07 04:42:38;;;;;;;9.52;8.07;;;16.70;99.90;;;;;;4995144;28;20065;-76
2022/09/07 04:45:05;;;;;;;9.43;7.68;;;16.60;99.90;;;;;;5012615;28;20126;-75
2022/09/07 04:47:30;;;;;;;14.35;8.18;;;16.70;99.90;;;;;;4994476;28;20046;-76
2022/09/07 04:49:56;;;;;;;10.48;8.20;;;16.60;99.90;;;;;;4996283;28;20108;-76
2022/09/07 04:52:22;;;;;;;14.02;8.63;;;16.70;99.90;;;;;;5012284;28;20044;-76
2022/09/07 04:54:49;;;;;;;11.57;9.10;;;16.60;99.90;;;;;;5012237;28;20830;-74
2022/09/07 04:57:17;;;;;;;12.85;8.93;;;16.60;99.90;;;;;;4994824;28;20046;-74
2022/09/07 04:59:42;;;;;;;14.50;8.82;;;16.70;99.90;;;;;;5012132;28;20034;-76
2022/09/07 05:02:08;;;;;;;13.82;8.85;;;16.60;99.90;;;;;;4995784;28;20552;-75
2022/09/07 05:04:35;;;;;;;14.05;10.07;;;16.60;99.90;;;;;;5010235;28;20429;-76
2022/09/07 05:07:00;;;;;;;16.27;10.65;;;16.60;99.90;;;;;;4985191;28;20355;-76
2022/09/07 05:09:26;;;;;;;18.73;11.13;;;16.60;99.90;;;;;;4991675;28;20065;-76
2022/09/07 05:11:52;;;;;;;14.77;10.82;;;16.60;99.90;;;;;;4995076;28;20053;-76
2022/09/07 05:14:19;;;;;;;14.20;11.43;;;16.60;99.90;;;;;;4994835;28;20107;-75
2022/09/07 05:16:44;;;;;;;18.13;13.10;;;16.60;99.90;;;;;;5011892;28;20042;-76
2022/09/07 05:19:12;;;;;;;20.00;14.00;;;16.70;99.90;;;;;;5010308;28;20045;-74
2022/09/07 05:21:38;;;;;;;20.50;14.73;;;16.70;99.90;;;;;;5008165;28;20389;-76
2022/09/07 05:24:05;;;;;;;19.23;14.88;;;16.70;99.90;;;;;;5011360;28;20453;-75
2022/09/07 05:26:33;;;;;;;27.75;16.05;;;16.70;99.90;;;;;;4995411;28;20054;-75
2022/09/07 05:29:04;;;;;;;23.35;16.50;;;16.80;99.90;;;;;;4993944;28;20060;-75
2022/09/07 05:31:31;;;;;;;20.38;16.77;;;16.70;99.90;;;;;;5001951;28;20564;-76
2022/09/07 05:33:57;;;;;;;25.67;17.25;;;16.80;99.90;;;;;;5002577;28;20045;-74
2022/09/07 05:36:25;;;;;;;22.33;17.58;;;16.90;99.90;;;;;;5000566;28;20038;-74
2022/09/07 05:38:55;;;;;;;29.00;19.13;;;16.90;99.90;;;;;;5001124;28;20060;-75
2022/09/07 05:41:26;;;;;;;26.27;18.73;;;16.90;99.90;;;;;;4991997;28;20521;-76
2022/09/07 05:43:53;;;;;;;28.20;19.83;;;16.90;99.90;;;;;;4991178;28;20082;-76
2022/09/07 05:46:19;;;;;;;25.67;19.92;;;16.90;99.90;;;;;;4991939;28;20507;-75
2022/09/07 05:48:45;;;;;;;29.42;19.73;;;16.90;99.90;;;;;;4992216;28;20445;-76
2022/09/07 05:51:12;;;;;;;26.48;20.40;;;16.90;99.90;;;;;;4992075;28;20042;-76
2022/09/07 05:53:40;;;;;;;33.15;18.75;;;17.00;99.90;;;;;;5010766;28;20049;-76
2022/09/07 05:56:06;;;;;;;24.38;18.13;;;17.00;99.90;;;;;;5011416;28;20140;-75
2022/09/07 05:58:35;;;;;;;26.42;19.10;;;17.00;99.90;;;;;;5010041;28;20057;-77
2022/09/07 06:01:09;;;;;;;24.05;18.50;;;17.00;99.90;;;;;;5011665;28;20343;-75
2022/09/07 06:03:37;;;;;;;34.28;19.88;;;17.00;99.90;;;;;;5011108;28;20056;-75
2022/09/07 06:06:08;;;;;;;27.52;19.55;;;17.10;99.90;;;;;;4978098;28;20046;-76
2022/09/07 06:08:37;;;;;;;33.03;19.88;;;17.10;99.90;;;;;;4995616;28;20074;-74
2022/09/07 06:11:06;;;;;;;27.25;19.77;;;17.20;99.90;;;;;;4975124;28;20066;-74
2022/09/07 06:13:33;;;;;;;26.13;19.85;;;17.10;99.90;;;;;;4985260;28;20042;-76
2022/09/07 06:16:00;;;;;;;27.83;21.17;;;17.30;99.90;;;;;;4994955;28;20444;-75
2022/09/07 06:18:35;;;;;;;30.77;22.10;;;17.20;99.90;;;;;;5010771;28;20048;-76
2022/09/07 06:21:05;;;;;;;30.92;22.00;;;17.30;99.90;;;;;;4994633;28;20045;-75
2022/09/07 06:23:32;;;;;;;27.80;21.20;;;17.40;99.90;;;;;;5010291;28;20044;-74
2022/09/07 06:25:58;;;;;;;30.73;21.60;;;17.40;99.90;;;;;;5008557;28;20057;-76
2022/09/07 06:28:34;;;;;;;28.27;21.08;;;17.50;99.90;;;;;;4979291;28;20125;-74
2022/09/07 06:31:08;;;;;;;30.40;22.25;;;17.60;99.90;;;;;;4991163;28;20473;-75
2022/09/07 06:33:37;;;;;;;29.58;22.35;;;17.60;99.90;;;;;;4991711;28;20055;-76
2022/09/07 06:36:06;;;;;;;25.85;20.38;;;17.60;99.90;;;;;;4990725;28;20512;-75
2022/09/07 06:38:36;;;;;;;28.05;20.35;;;17.60;99.90;;;;;;4997624;28;20148;-75
2022/09/07 06:41:34;;;;;;;23.65;19.48;;;17.60;99.90;;;;;;4994236;28;20042;-76
2022/09/07 06:44:00;;;;;;;26.45;21.08;;;17.60;99.90;;;;;;4990993;28;20054;-75
2022/09/07 06:46:26;;;;;;;30.15;21.30;;;17.60;99.90;;;;;;5008555;28;20045;-76
2022/09/07 06:48:55;;;;;;;32.05;20.85;;;17.60;99.90;;;;;;5009377;28;20087;-75
2022/09/07 06:51:25;;;;;;;28.25;20.33;;;17.60;99.90;;;;;;5011547;28;20104;-76
2022/09/07 06:53:55;;;;;;;26.83;21.08;;;17.60;99.90;;;;;;5014446;28;20040;-74
2022/09/07 06:56:21;;;;;;;28.40;21.70;;;17.60;99.90;;;;;;5014872;28;20034;-75
2022/09/07 06:58:47;;;;;;;33.95;23.90;;;17.60;99.90;;;;;;4997429;28;20091;-74
2022/09/07 07:01:15;;;;;;;37.42;25.67;;;17.60;99.90;;;;;;5014453;28;20477;-75
2022/09/07 07:03:42;;;;;;;40.95;27.38;;;17.60;99.90;;;;;;4995213;28;20117;-74
2022/09/07 07:06:09;;;;;;;38.58;28.95;;;17.70;99.90;;;;;;4997171;28;20083;-75
2022/09/07 07:08:35;;;;;;;41.70;29.08;;;17.70;99.90;;;;;;5013760;28;20046;-75
2022/09/07 07:11:09;;;;;;;36.08;28.23;;;17.80;99.90;;;;;;5013883;28;20220;-75
2022/09/07 07:13:36;;;;;;;37.85;27.92;;;17.80;99.90;;;;;;4996967;28;20050;-74
2022/09/07 07:16:03;;;;;;;39.28;27.40;;;17.90;99.90;;;;;;5014262;28;20440;-76
2022/09/07 07:18:29;;;;;;;38.05;27.90;;;17.90;99.90;;;;;;5013773;28;20151;-75
2022/09/07 07:20:55;;;;;;;37.38;27.73;;;17.80;99.90;;;;;;4997644;28;20133;-76
2022/09/07 07:23:21;;;;;;;37.03;25.65;;;17.90;99.90;;;;;;5009477;28;20045;-76
2022/09/07 07:25:46;;;;;;;31.20;23.08;;;17.90;99.90;;;;;;4997372;28;20049;-76
2022/09/07 07:28:12;;;;;;;29.02;21.65;;;17.80;99.90;;;;;;5011806;28;20037;-76
2022/09/07 07:30:38;;;;;;;25.17;21.27;;;17.70;99.90;;;;;;5013341;28;20038;-75
2022/09/07 07:33:04;;;;;;;28.83;20.60;;;17.90;99.90;;;;;;5001267;28;20153;-75
2022/09/07 07:35:30;;;;;;;26.50;19.75;;;17.90;99.90;;;;;;5013556;28;20042;-75
2022/09/07 07:37:55;;;;;;;25.67;19.83;;;17.90;99.90;;;;;;4993529;28;20057;-76
2022/09/07 07:40:21;;;;;;;21.48;18.50;;;17.80;99.90;;;;;;4977813;28;20088;-75
2022/09/07 07:42:47;;;;;;;28.40;20.48;;;17.80;99.90;;;;;;4976988;28;20110;-76
2022/09/07 07:45:13;;;;;;;26.42;19.92;;;17.80;99.90;;;;;;4977803;28;20144;-76
2022/09/07 07:47:39;;;;;;;28.23;20.80;;;17.80;99.90;;;;;;5009384;28;20416;-76
2022/09/07 07:50:06;;;;;;;26.55;19.73;;;17.80;99.90;;;;;;4997184;28;20038;-76
2022/09/07 07:52:37;;;;;;;24.70;19.35;;;17.80;99.90;;;;;;5015106;28;20100;-76
2022/09/07 07:55:06;;;;;;;31.65;20.98;;;17.70;99.90;;;;;;4997324;28;20104;-76
2022/09/07 07:57:32;;;;;;;28.48;22.33;;;17.90;99.90;;;;;;5012558;28;20049;-76
2022/09/07 07:59:57;;;;;;;29.58;21.05;;;18.00;99.90;;;;;;5008772;28;20026;-76
2022/09/07 08:02:23;;;;;;;28.25;21.75;;;18.10;99.90;;;;;;4995626;28;20819;-75
2022/09/07 08:04:49;;;;;;;27.73;22.25;;;18.20;99.90;;;;;;4988284;28;20112;-75
2022/09/07 08:07:16;;;;;;;29.23;22.80;;;18.40;99.90;;;;;;4995040;28;20081;-76
2022/09/07 08:09:44;;;;;;;32.22;22.92;;;18.40;99.90;;;;;;5012790;28;20129;-75
2022/09/07 08:12:12;;;;;;;27.27;22.13;;;18.50;99.90;;;;;;5011736;28;20054;-75
2022/09/07 08:14:41;;;;;;;28.52;21.77;;;18.60;99.90;;;;;;4996908;28;20461;-75
2022/09/07 08:17:09;;;;;;;30.63;22.35;;;18.60;99.90;;;;;;5012811;28;20038;-75
2022/09/07 08:19:35;;;;;;;30.83;23.27;;;18.50;99.90;;;;;;5009222;28;20034;-76
2022/09/07 08:22:03;;;;;;;29.83;21.73;;;18.70;99.90;;;;;;4976782;28;20145;-76
2022/09/07 08:24:32;;;;;;;33.95;23.90;;;18.90;99.90;;;;;;4993251;28;20378;-76
2022/09/07 08:26:57;;;;;;;31.23;23.05;;;19.00;99.90;;;;;;4994968;28;20046;-75
2022/09/07 08:29:23;;;;;;;26.52;21.70;;;19.20;99.90;;;;;;4994399;28;20061;-76
2022/09/07 08:31:49;;;;;;;27.38;21.75;;;19.30;99.90;;;;;;5012373;28;20048;-75
2022/09/07 08:34:15;;;;;;;30.25;22.30;;;19.40;99.90;;;;;;5028756;28;20041;-76
2022/09/07 08:36:41;;;;;;;30.38;22.02;;;19.40;99.90;;;;;;5033371;28;20134;-76
2022/09/07 08:39:06;;;;;;;27.45;21.30;;;19.50;99.90;;;;;;5020061;28;20104;-76
2022/09/07 08:41:55;;;;;;;29.20;21.70;;;19.50;99.90;;;;;;4994139;28;20053;-76
2022/09/07 08:44:44;;;;;;;30.63;20.60;;;19.50;99.90;;;;;;5011673;28;20072;-76
2022/09/07 08:47:32;;;;;;;29.73;22.05;;;19.40;99.90;;;;;;4995725;28;20034;-76
2022/09/07 08:50:18;;;;;;;30.05;20.63;;;19.40;99.90;;;;;;5012576;28;20092;-76
2022/09/07 08:52:52;;;;;;;25.08;20.92;;;19.30;99.90;;;;;;5011844;28;20458;-76
2022/09/07 08:55:44;;;;;;;33.05;22.95;;;19.30;99.90;;;;;;4996057;28;20037;-76
2022/09/07 08:58:21;;;;;;;28.95;22.45;;;19.30;99.90;;;;;;4986024;28;20039;-75
2022/09/07 09:00:50;;;;;;;29.10;22.67;;;19.30;99.90;;;;;;5010829;28;20064;-75
2022/09/07 09:03:22;;;;;;;27.60;21.80;;;19.30;99.90;;;;;;5011483;28;20045;-76
2022/09/07 09:06:04;;;;;;;28.90;22.75;;;19.50;99.90;;;;;;4995627;28;20041;-76
2022/09/07 09:08:58;;;;;;;26.27;21.50;;;19.60;99.90;;;;;;5011574;28;20046;-76
2022/09/07 09:11:32;;;;;;;28.85;21.20;;;20.00;99.90;;;;;;5011646;28;20061;-76
2022/09/07 09:14:04;;;;;;;;;;;20.40;99.90;;;;;;5009293;28;20049;-76
2022/09/07 09:16:44;;;;;;;27.27;20.20;;;20.60;99.90;;;;;;4986416;28;19921;-75
2022/09/07 09:19:40;;;;;;;24.15;19.92;;;20.80;99.90;;;;;;4975810;28;20043;-76
2022/09/07 09:22:18;;;;;;;23.63;19.20;;;20.90;99.90;;;;;;4991315;28;20038;-76
2022/09/07 09:24:52;;;;;;;21.92;18.45;;;21.10;99.90;;;;;;4976147;28;20077;-76
2022/09/07 09:27:17;;;;;;;25.77;19.00;;;21.20;99.90;;;;;;4974862;28;20100;-76
2022/09/07 09:29:43;;;;;;;22.92;18.15;;;21.10;99.90;;;;;;4991730;28;20046;-76
2022/09/07 09:32:40;;;;;;;24.77;19.38;;;21.10;99.90;;;;;;5004869;28;20108;-76
2022/09/07 09:35:24;;;;;;;23.88;17.70;;;21.20;99.90;;;;;;4976023;28;20050;-76
2022/09/07 09:37:49;;;;;;;21.80;18.07;;;21.30;99.90;;;;;;4976720;28;20042;-75
2022/09/07 09:40:28;;;;;;;19.98;17.02;;;21.20;99.90;;;;;;4994889;28;20050;-75
2022/09/07 09:43:00;;;;;;;23.48;17.52;;;21.20;99.90;;;;;;5004115;28;20048;-76
2022/09/07 09:45:28;;;;;;;25.10;16.23;;;21.30;99.90;;;;;;4991743;28;20050;-76
2022/09/07 09:47:56;;;;;;;21.90;16.42;;;21.40;99.90;;;;;;4996306;28;20038;-74
2022/09/07 09:50:33;;;;;;;19.88;15.98;;;21.40;99.90;;;;;;5008633;28;20046;-75
2022/09/07 09:53:00;;;;;;;22.50;17.25;;;21.40;99.90;;;;;;5010909;28;20034;-75
2022/09/07 09:55:33;;;;;;;23.33;17.13;;;21.50;99.90;;;;;;5011447;28;20362;-75
2022/09/07 09:58:04;;;;;;;20.33;16.02;;;21.60;99.90;;;;;;5010341;28;20037;-75
2022/09/07 10:00:31;;;;;;;19.60;15.60;;;21.60;99.90;;;;;;4983003;28;20077;-76
2022/09/07 10:03:02;;;;;;;18.30;15.50;;;21.60;99.90;;;;;;5010881;28;20095;-76
2022/09/07 10:05:27;;;;;;;19.20;15.00;;;21.60;99.90;;;;;;5009595;28;20133;-75
2022/09/07 10:07:53;;;;;;;24.98;13.73;;;21.40;99.90;;;;;;4994880;28;20461;-76
2022/09/07 10:10:19;;;;;;;18.25;13.13;;;21.50;99.90;;;;;;5010879;28;20508;-76
2022/09/07 10:12:45;;;;;;;18.13;13.35;;;21.60;99.90;;;;;;5000774;28;20058;-75
2022/09/07 10:15:28;;;;;;;13.98;12.48;;;21.50;99.90;;;;;;4991288;28;20560;-75
2022/09/07 10:17:54;;;;;;;12.90;10.23;;;21.50;99.90;;;;;;4974722;28;20046;-75
2022/09/07 10:20:37;;;;;;;9.45;8.00;;;21.60;99.90;;;;;;4991479;28;20057;-74
2022/09/07 10:23:05;;;;;;;10.52;8.13;;;22.00;99.90;;;;;;4995332;28;20115;-75
2022/09/07 10:25:35;;;;;;;8.60;7.70;;;22.10;99.90;;;;;;4991060;28;20517;-75
2022/09/07 10:28:11;;;;;;;8.63;6.93;;;22.40;99.90;;;;;;4973887;28;20109;-74
2022/09/07 10:31:05;;;;;;;8.20;6.95;;;22.60;99.90;;;;;;4991081;28;20057;-75
2022/09/07 10:33:43;;;;;;;7.70;6.53;;;22.80;99.90;;;;;;4998170;28;20481;-75
2022/09/07 10:36:36;;;;;;;8.32;6.40;;;22.80;99.90;;;;;;4994185;28;20485;-75
2022/09/07 10:39:15;;;;;;;7.90;6.30;;;23.10;99.90;;;;;;5008070;28;20041;-75
2022/09/07 10:42:05;;;;;;;8.13;6.18;;;23.50;99.90;;;;;;4982585;28;20043;-75
2022/09/07 10:44:52;;;;;;;7.35;6.53;;;23.70;99.90;;;;;;4991053;28;20038;-76
2022/09/07 10:47:37;;;;;;;6.95;6.25;;;23.40;99.90;;;;;;4976725;28;20180;-75
2022/09/07 10:50:08;;;;;;;7.53;6.15;;;23.30;99.90;;;;;;5010420;28;20042;-75
2022/09/07 10:52:59;;;;;;;6.57;4.60;;;23.40;99.90;;;;;;5010132;28;20077;-75
2022/09/07 10:55:32;;;;;;;10.77;5.65;;;23.60;99.90;;;;;;4976454;28;20085;-77
2022/09/07 10:58:12;;;;;;;8.23;5.75;;;23.20;99.90;;;;;;4990143;28;20068;-75
2022/09/07 11:00:55;;;;;;;9.40;5.68;;;23.20;99.90;;;;;;4997101;28;20160;-76
2022/09/07 11:03:25;;;;;;;6.15;5.50;;;23.20;99.90;;;;;;4990896;28;20046;-76
2022/09/07 11:05:53;;;;;;;7.88;4.90;;;23.80;99.90;;;;;;4976282;28;20054;-76
2022/09/07 11:08:37;;;;;;;7.60;5.25;;;24.30;99.90;;;;;;4974721;28;20402;-77
2022/09/07 11:11:27;;;;;;;5.10;4.55;;;24.50;99.90;;;;;;4986843;28;20139;-77
2022/09/07 11:14:00;;;;;;;7.22;4.80;;;24.80;99.90;;;;;;4991222;28;20121;-77
2022/09/07 11:16:33;;;;;;;6.30;4.80;;;24.50;99.90;;;;;;4992720;28;20131;-77
2022/09/07 11:19:13;;;;;;;6.25;4.85;;;24.30;99.90;;;;;;4974876;28;20349;-76
2022/09/07 11:21:49;;;;;;;5.90;5.30;;;24.00;99.90;;;;;;5006426;28;20681;-76
2022/09/07 11:24:32;;;;;;;5.65;5.03;;;23.70;99.90;;;;;;5008553;28;20270;-75
2022/09/07 11:27:11;;;;;;;5.28;4.78;;;23.60;99.90;;;;;;4991040;28;20046;-76
2022/09/07 11:29:49;;;;;;;5.70;4.68;;;23.80;99.90;;;;;;4989323;28;20448;-75
2022/09/07 11:32:26;;;;;;;4.55;4.10;;;23.90;99.90;;;;;;4989090;28;20417;-76
2022/09/07 11:35:05;;;;;;;6.90;3.50;;;24.10;99.90;;;;;;4989613;28;20038;-75
2022/09/07 11:38:12;;;;;;;3.85;3.30;;;24.00;99.90;;;;;;5010846;28;20414;-75
2022/09/07 11:40:58;;;;;;;3.53;3.20;;;23.90;99.90;;;;;;4992585;28;20136;-76
2022/09/07 11:43:36;;;;;;;3.97;2.83;;;23.50;99.90;;;;;;4978109;28;20085;-75
2022/09/07 11:46:09;;;;;;;3.70;2.50;;;23.70;99.90;;;;;;4985598;28;20044;-75
2022/09/07 11:48:57;;;;;;;3.60;2.50;;;23.70;99.90;;;;;;4976100;28;20054;-76
2022/09/07 11:51:45;;;;;;;3.17;2.28;;;23.60;99.90;;;;;;4978473;28;20163;-77
2022/09/07 11:54:43;;;;;;;2.95;2.13;;;24.00;99.90;;;;;;4964462;28;20142;-76
2022/09/07 11:57:27;;;;;;;2.05;1.83;;;24.50;99.90;;;;;;4975167;28;20194;-75
2022/09/07 11:59:53;;;;;;;3.65;1.75;;;24.20;99.90;;;;;;4968734;28;20494;-77
2022/09/07 12:02:42;;;;;;;3.95;1.77;;;24.30;99.90;;;;;;4994529;28;20053;-77
2022/09/07 12:05:52;;;;;;;3.30;2.20;;;24.80;99.90;;;;;;4995593;28;20042;-78
2022/09/07 12:08:43;;;;;;;2.80;1.58;;;25.20;99.90;;;;;;4918239;29;20071;-78
2022/09/07 12:11:17;;;;;;;4.88;1.80;;;25.60;99.90;;;;;;4918087;29;20092;-75
2022/09/07 12:14:34;;;;;;;2.70;1.55;;;25.90;99.90;;;;;;4917552;29;20063;-75
2022/09/07 12:17:24;;;;;;;3.33;1.55;;;25.90;99.90;;;;;;4936406;29;20514;-75
2022/09/07 12:20:38;;;;;;;2.80;1.52;;;25.40;99.90;;;;;;4937591;29;20475;-76
2022/09/07 12:23:16;;;;;;;3.85;1.50;;;25.20;99.90;;;;;;4899837;29;20044;-77
2022/09/07 12:25:44;;;;;;;2.38;1.50;;;25.10;99.90;;;;;;4899407;29;20052;-77
2022/09/07 12:28:22;;;;;;;4.30;1.40;;;25.20;99.90;;;;;;4898712;29;20051;-77
2022/09/07 12:30:53;;;;;;;3.92;1.30;;;25.00;99.90;;;;;;4882299;29;20159;-76
2022/09/07 12:33:20;;;;;;;2.22;1.40;;;24.90;99.90;;;;;;4904282;29;20146;-76
2022/09/07 12:35:46;;;;;;;2.47;1.63;;;25.20;99.90;;;;;;4896613;29;20140;-76
2022/09/07 12:38:12;;;;;;;3.60;1.48;;;25.80;99.90;;;;;;4864789;29;20534;-77
2022/09/07 12:40:38;;;;;;;2.70;1.50;;;26.10;99.90;;;;;;4873287;29;20041;-76
2022/09/07 12:43:12;;;;;;;2.08;1.40;;;26.40;99.90;;;;;;4897875;29;20540;-76
2022/09/07 12:45:38;;;;;;;2.80;1.70;;;26.40;99.90;;;;;;4915545;29;20091;-77
2022/09/07 12:48:06;;;;;;;3.47;1.55;;;26.60;99.90;;;;;;4915699;29;20059;-77
2022/09/07 12:50:36;;;;;;;2.83;1.60;;;26.80;99.90;;;;;;4904488;29;20056;-77
2022/09/07 12:53:46;;;;;;;4.40;1.58;;;26.70;99.90;;;;;;4899071;29;20064;-78
2022/09/07 12:56:14;;;;;;;4.55;1.60;;;26.70;99.90;;;;;;4918587;28;20055;-76
2022/09/07 12:58:46;;;;;;;4.93;1.63;;;26.90;99.90;;;;;;4994808;28;20064;-77
2022/09/07 13:01:50;;;;;;;2.33;1.50;;;26.50;99.90;;;;;;4992945;28;20397;-77
2022/09/07 13:04:36;;;;;;;3.73;1.70;;;26.50;99.90;;;;;;4995026;28;20076;-77